Terminal Aerodrome Forecast
Issued by NWS Cheyenne, WY

Home | Current Version | Previous Version | Text Only | Print | Product List | Glossary On
Versions: 1 2 3 4 5 6 7 8 9 10 11 12 13 14 15 16 17 18
000
FTUS45 KCYS 202339
TAFCYS
TAF
KCYS 202339Z 2100/2124 12014G24KT 3SM -SN OVC004
      TEMPO 2100/2102 1SM -SN BR
     FM210300 11014G24KT 1SM -SN OVC004
     FM210600 10008KT 3SM -SN BR OVC004
     FM211000 03006KT 1SM BR OVC003
     FM211600 36008KT 4SM -RASN BR OVC007
     FM211800 36012KT P6SM -RA OVC012=

USA.gov is the U.S. government's official web portal to all federal, state and local government web resources and services.